Time;durP1;ratioP1;P1;durP2;ratioP2;P2;SDS_P1;SDS_P2;PMS_P1;PMS_P2;Temp;Humidity;BMP_temperature;BMP_pressure;BME280_temperature;BME280_humidity;BME280_pressure;Samples;Min_cycle;Max_cycle;Signal;HPM_P1;HPM_P2
2021/04/13 00:01:32;;;;;;;12.82;5.18;;;384.20;1868.80;;;;;;5095759;28;20019;-76
2021/04/13 00:04:14;;;;;;;13.07;5.38;;;384.30;1843.20;;;;;;5096609;28;20036;-75
2021/04/13 00:06:48;;;;;;;10.93;5.05;;;384.30;1868.80;;;;;;5113751;28;20042;-78
2021/04/13 00:09:25;;;;;;;11.18;5.75;;;384.20;1868.80;;;;;;5113557;28;20126;-78
2021/04/13 00:11:56;;;;;;;17.83;7.40;;;384.10;1920.00;;;;;;5113550;28;20015;-77
2021/04/13 00:14:26;;;;;;;26.70;10.35;;;384.10;1945.60;;;;;;5095455;28;20164;-78
2021/04/13 00:16:55;;;;;;;16.70;9.95;;;359.20;2048.00;;;;;;5075147;28;20023;-75
2021/04/13 00:19:26;;;;;;;22.98;12.82;;;359.20;2048.00;;;;;;5093144;28;20028;-75
2021/04/13 00:21:53;;;;;;;32.80;12.65;;;359.20;2048.00;;;;;;5092974;28;20036;-75
2021/04/13 00:24:22;;;;;;;21.25;13.15;;;359.20;2048.00;;;;;;5093099;28;20016;-75
2021/04/13 00:26:56;;;;;;;20.63;12.88;;;359.00;2048.00;;;;;;5112801;28;20480;-74
2021/04/13 00:29:25;;;;;;;29.88;14.65;;;359.00;2022.40;;;;;;5094166;28;20046;-75
2021/04/13 00:31:59;;;;;;;23.60;14.38;;;358.80;2073.60;;;;;;5094582;28;20444;-75
2021/04/13 00:34:42;;;;;;;28.42;14.13;;;358.60;2073.60;;;;;;5091211;28;20016;-75
2021/04/13 00:37:32;;;;;;;19.42;13.15;;;358.60;2073.60;;;;;;5110619;28;20016;-75
2021/04/13 00:40:13;;;;;;;29.02;13.27;;;333.70;2099.20;;;;;;5113182;28;20031;-75
2021/04/13 00:42:41;;;;;;;24.42;14.15;;;333.70;2099.20;;;;;;5112497;28;20035;-76
2021/04/13 00:45:36;;;;;;;22.48;12.90;;;333.60;2099.20;;;;;;5112448;28;20458;-78
2021/04/13 00:48:04;;;;;;;31.10;17.13;;;333.40;2099.20;;;;;;5110250;28;20032;-74
2021/04/13 00:50:43;;;;;;;20.95;14.15;;;333.40;2124.80;;;;;;5111819;28;20040;-75
2021/04/13 00:53:14;;;;;;;26.77;17.35;;;333.40;2099.20;;;;;;5091937;28;20046;-75
2021/04/13 00:55:51;;;;;;;27.70;15.77;;;333.40;2099.20;;;;;;5112866;28;20490;-75
2021/04/13 00:58:34;;;;;;;23.17;14.73;;;333.40;2124.80;;;;;;5099173;27;20042;-78
2021/04/13 01:01:23;;;;;;;22.45;14.18;;;333.40;2099.20;;;;;;5117611;27;20023;-77
2021/04/13 01:04:01;;;;;;;21.17;13.45;;;333.30;2124.80;;;;;;5114608;27;20027;-77
2021/04/13 01:06:29;;;;;;;19.13;12.93;;;333.30;2073.60;;;;;;5099448;28;20036;-75
2021/04/13 01:09:10;;;;;;;18.58;12.70;;;333.40;2073.60;;;;;;5112159;28;20023;-75
2021/04/13 01:11:55;;;;;;;17.65;12.13;;;333.20;2073.60;;;;;;5094066;28;20404;-75
2021/04/13 01:14:24;;;;;;;20.85;12.27;;;332.90;2073.60;;;;;;5112457;28;20047;-75
2021/04/13 01:16:54;;;;;;;24.25;12.50;;;308.10;2073.60;;;;;;5112219;28;20019;-74
2021/04/13 01:19:47;;;;;;;18.83;10.70;;;307.80;2099.20;;;;;;5088325;28;20028;-75
2021/04/13 01:22:33;;;;;;;26.67;11.35;;;308.10;2048.00;;;;;;5093926;28;20038;-75
2021/04/13 01:25:08;;;;;;;19.40;11.75;;;308.00;2022.40;;;;;;5093346;28;20027;-76
2021/04/13 01:27:34;;;;;;;26.15;12.60;;;307.40;2099.20;;;;;;5111851;28;20020;-77
2021/04/13 01:30:12;;;;;;;18.13;12.75;;;282.50;2099.20;;;;;;5112042;28;20077;-77
2021/04/13 01:32:37;;;;;;;23.30;13.45;;;282.50;2099.20;;;;;;5111935;28;20034;-77
2021/04/13 01:35:10;;;;;;;22.00;12.23;;;282.50;2073.60;;;;;;5112041;28;20098;-77
2021/04/13 01:43:15;;;;;;;18.60;10.43;;;282.30;2073.60;;;;;;5028914;28;20095;-78
2021/04/13 01:45:41;;;;;;;16.98;10.20;;;282.30;2073.60;;;;;;5012686;28;20025;-79
2021/04/13 01:48:09;;;;;;;15.68;10.20;;;282.20;2073.60;;;;;;5029340;28;20045;-78
2021/04/13 01:50:42;;;;;;;20.90;10.30;;;282.20;2048.00;;;;;;5030088;28;20446;-79
2021/04/13 01:53:22;;;;;;;21.52;11.48;;;282.30;2022.40;;;;;;5029715;28;20041;-79
2021/04/13 01:55:54;;;;;;;19.35;10.60;;;282.50;1996.80;;;;;;5029946;28;20032;-79
2021/04/13 01:58:40;;;;;;;15.88;10.05;;;282.20;1996.80;;;;;;5032578;28;20152;-79
2021/04/13 02:01:33;;;;;;;14.05;9.82;;;282.20;1996.80;;;;;;5029613;28;20038;-79
2021/04/13 02:04:21;;;;;;;19.80;11.27;;;282.20;1996.80;;;;;;4996274;28;20061;-79
2021/04/13 02:07:14;;;;;;;17.98;10.18;;;282.00;1996.80;;;;;;5005151;28;20501;-80
2021/04/13 02:09:45;;;;;;;11.75;8.88;;;282.00;1996.80;;;;;;5010247;28;20129;-79
2021/04/13 02:12:22;;;;;;;12.55;8.25;;;281.80;2022.40;;;;;;5007598;28;20033;-80
2021/04/13 02:15:03;;;;;;;10.93;7.88;;;282.00;1971.20;;;;;;5007075;28;20044;-79
2021/04/13 02:17:46;;;;;;;16.10;7.07;;;282.10;1920.00;;;;;;5006387;28;20026;-79
2021/04/13 02:20:15;;;;;;;12.48;7.13;;;282.00;1920.00;;;;;;5035753;28;20032;-79
2021/04/13 02:22:46;;;;;;;13.75;7.93;;;282.10;1894.40;;;;;;5052868;28;20044;-82
2021/04/13 02:25:15;;;;;;;13.30;7.20;;;282.20;1868.80;;;;;;5058480;28;20016;-80
2021/04/13 02:27:44;;;;;;;11.05;6.88;;;282.00;1868.80;;;;;;5083916;28;20067;-80
2021/04/13 02:30:14;;;;;;;10.35;7.05;;;282.00;1868.80;;;;;;5049683;28;20505;-79
2021/04/13 02:32:46;;;;;;;11.25;6.68;;;281.90;1868.80;;;;;;5077955;28;20017;-79
2021/04/13 02:35:21;;;;;;;9.73;6.80;;;281.90;1894.40;;;;;;5069272;28;20043;-79
2021/04/13 02:37:55;;;;;;;11.57;7.38;;;281.60;1894.40;;;;;;5053061;28;20078;-80
2021/04/13 02:40:27;;;;;;;16.60;7.57;;;281.70;1894.40;;;;;;5093406;28;20076;-77
2021/04/13 02:42:56;;;;;;;10.77;7.57;;;281.60;1868.80;;;;;;5111860;28;20043;-77
2021/04/13 02:45:36;;;;;;;10.30;7.65;;;281.60;1868.80;;;;;;5093228;28;20034;-78
2021/04/13 02:48:09;;;;;;;9.88;7.30;;;281.60;1868.80;;;;;;5078840;28;20511;-77
2021/04/13 02:50:38;;;;;;;12.18;6.85;;;256.90;1843.20;;;;;;5093542;28;20055;-79
2021/04/13 02:53:07;;;;;;;9.32;6.63;;;256.80;1843.20;;;;;;5111560;28;20469;-77
2021/04/13 02:55:40;;;;;;;9.07;6.97;;;256.80;1843.20;;;;;;5112023;28;20111;-77
2021/04/13 02:58:11;;;;;;;9.57;6.57;;;256.80;1843.20;;;;;;5095736;28;20026;-77
2021/04/13 03:00:48;;;;;;;9.15;6.25;;;256.80;1843.20;;;;;;5101379;28;20015;-80
2021/04/13 03:03:22;;;;;;;12.13;6.22;;;256.70;1817.60;;;;;;5083466;28;20605;-77
2021/04/13 03:05:53;;;;;;;12.40;6.93;;;256.70;1817.60;;;;;;5101983;28;20016;-77
2021/04/13 03:08:20;;;;;;;11.00;5.63;;;256.80;1817.60;;;;;;5097034;28;20114;-77
2021/04/13 03:10:56;;;;;;;11.68;6.72;;;256.70;1817.60;;;;;;5097204;28;20452;-77
2021/04/13 03:13:26;;;;;;;10.15;5.82;;;256.50;1817.60;;;;;;5115317;28;20081;-77
2021/04/13 03:15:57;;;;;;;11.80;6.70;;;256.40;1843.20;;;;;;5096776;28;20487;-76
2021/04/13 03:18:28;;;;;;;12.98;6.60;;;256.50;1843.20;;;;;;5115024;28;20031;-77
2021/04/13 03:20:59;;;;;;;9.85;6.85;;;256.30;1843.20;;;;;;5096721;28;20031;-77
2021/04/13 03:23:29;;;;;;;11.07;6.80;;;256.40;1817.60;;;;;;5115317;28;20040;-77
2021/04/13 03:26:01;;;;;;;11.32;7.28;;;256.20;1868.80;;;;;;5114904;28;20421;-77
2021/04/13 03:28:45;;;;;;;10.07;7.15;;;256.20;1868.80;;;;;;5115105;28;20081;-77
2021/04/13 03:31:14;;;;;;;9.85;6.90;;;256.20;1843.20;;;;;;5082415;28;20020;-77
2021/04/13 03:33:42;;;;;;;10.82;6.78;;;256.40;1817.60;;;;;;5114928;28;20012;-77
2021/04/13 03:36:14;;;;;;;10.52;6.80;;;256.40;1817.60;;;;;;5096744;28;20476;-77
2021/04/13 03:38:41;;;;;;;9.43;6.40;;;256.40;1817.60;;;;;;5096444;28;20042;-77
2021/04/13 03:41:15;;;;;;;13.52;7.78;;;256.40;1817.60;;;;;;5096801;28;20503;-76
2021/04/13 03:43:42;;;;;;;10.98;7.05;;;256.30;1843.20;;;;;;5082857;28;20145;-78
2021/04/13 03:46:10;;;;;;;16.58;7.15;;;256.00;1868.80;;;;;;5114668;28;20110;-77
2021/04/13 03:48:38;;;;;;;11.13;7.07;;;256.00;1843.20;;;;;;5114704;28;20027;-77
2021/04/13 03:51:20;;;;;;;10.68;7.15;;;256.00;1843.20;;;;;;5114451;28;20061;-77
2021/04/13 03:53:47;;;;;;;10.20;7.13;;;231.30;1868.80;;;;;;5112889;28;20402;-78
2021/04/13 03:56:19;;;;;;;10.98;7.60;;;256.00;1843.20;;;;;;5096109;28;20016;-77
2021/04/13 03:58:55;;;;;;;12.80;7.28;;;231.30;1843.20;;;;;;5114258;28;20016;-78
2021/04/13 04:01:27;;;;;;;9.73;7.55;;;231.10;1868.80;;;;;;5130488;27;20508;-78
2021/04/13 04:04:01;;;;;;;12.70;6.90;;;231.30;1843.20;;;;;;5130180;27;20032;-78
2021/04/13 04:06:46;;;;;;;9.88;6.72;;;256.10;1817.60;;;;;;5114191;28;20035;-78
2021/04/13 04:09:34;;;;;;;8.63;5.82;;;231.30;1843.20;;;;;;5129523;27;20461;-82
2021/04/13 04:12:03;;;;;;;10.10;5.65;;;256.00;1817.60;;;;;;5130169;27;20016;-76
2021/04/13 04:14:30;;;;;;;14.48;6.80;;;256.20;1792.00;;;;;;5095987;28;20027;-77
2021/04/13 04:17:07;;;;;;;9.18;6.75;;;231.30;1817.60;;;;;;5130008;27;20047;-76
2021/04/13 04:19:34;;;;;;;8.88;6.47;;;231.20;1843.20;;;;;;5113886;28;20027;-77
2021/04/13 04:22:04;;;;;;;13.55;8.48;;;231.10;1843.20;;;;;;5095942;28;20196;-76
2021/04/13 04:24:40;;;;;;;9.85;6.53;;;230.90;1868.80;;;;;;5129855;27;20032;-79
2021/04/13 04:27:15;;;;;;;10.38;6.47;;;231.20;1843.20;;;;;;5098224;28;20112;-82
2021/04/13 04:29:47;;;;;;;11.45;6.65;;;231.20;1817.60;;;;;;5095727;28;20031;-80
2021/04/13 04:32:40;;;;;;;12.45;7.78;;;231.20;1817.60;;;;;;5085726;28;20361;-83
2021/04/13 04:35:10;;;;;;;20.85;8.63;;;231.20;1817.60;;;;;;5096533;28;20491;-81
2021/04/13 04:37:46;;;;;;;13.90;7.45;;;231.20;1817.60;;;;;;5114139;28;20038;-83
2021/04/13 04:40:14;;;;;;;15.90;8.05;;;231.20;1817.60;;;;;;5085026;28;20175;-79
2021/04/13 04:42:53;;;;;;;14.25;7.80;;;231.10;1817.60;;;;;;5096182;28;20036;-80
2021/04/13 04:45:36;;;;;;;13.80;7.35;;;230.90;1868.80;;;;;;5114247;28;20043;-81
2021/04/13 04:48:28;;;;;;;16.35;7.90;;;231.10;1843.20;;;;;;5113859;28;20040;-82
2021/04/13 04:51:04;;;;;;;16.60;8.02;;;230.90;1868.80;;;;;;5113804;28;20039;-82
2021/04/13 04:53:31;;;;;;;15.90;8.65;;;230.90;1843.20;;;;;;5113929;28;20106;-82
2021/04/13 04:55:59;;;;;;;10.55;7.30;;;231.00;1843.20;;;;;;5113640;28;20190;-79
2021/04/13 04:58:26;;;;;;;14.15;8.30;;;231.00;1843.20;;;;;;5130040;27;20481;-81
2021/04/13 05:00:53;;;;;;;10.13;7.28;;;231.00;1817.60;;;;;;5129713;27;20024;-78
2021/04/13 05:03:20;;;;;;;19.73;9.55;;;231.10;1817.60;;;;;;5113513;28;20035;-81
2021/04/13 05:05:46;;;;;;;12.63;8.10;;;230.90;1843.20;;;;;;5129012;27;20020;-83
2021/04/13 05:08:11;;;;;;;;;;;230.40;1894.40;;;;;;5127667;27;20031;-82
2021/04/13 05:10:37;;;;;;;8.23;5.70;;;230.60;1894.40;;;;;;5095771;28;20391;-85
2021/04/13 05:13:04;;;;;;;;;;;230.80;1843.20;;;;;;5095124;28;20051;-79
2021/04/13 05:15:30;;;;;;;12.13;6.57;;;230.80;1843.20;;;;;;5095093;28;20398;-78
2021/04/13 05:17:55;;;;;;;;;;;230.80;1843.20;;;;;;5095124;28;20043;-80
2021/04/13 05:20:21;;;;;;;12.05;6.65;;;230.70;1817.60;;;;;;5094641;28;19912;-83
2021/04/13 05:22:46;;;;;;;;;;;230.70;1868.80;;;;;;5095558;28;20046;-84
2021/04/13 05:25:13;;;;;;;13.63;6.40;;;230.50;1894.40;;;;;;5095082;28;19950;-80
2021/04/13 05:27:39;;;;;;;11.32;6.30;;;205.70;1920.00;;;;;;5094813;28;20111;-80
2021/04/13 05:30:07;;;;;;;8.85;6.00;;;205.70;1920.00;;;;;;5113027;28;20019;-81
2021/04/13 05:32:32;;;;;;;9.95;6.57;;;230.60;1868.80;;;;;;5112799;28;20034;-82
2021/04/13 05:34:58;;;;;;;;;;;230.90;1843.20;;;;;;5110407;28;20020;-83
2021/04/13 05:37:25;;;;;;;9.85;5.88;;;231.10;1817.60;;;;;;5097697;28;19908;-81
2021/04/13 05:39:51;;;;;;;9.85;6.32;;;231.20;1792.00;;;;;;5112700;28;20046;-80
2021/04/13 05:42:23;;;;;;;;;;;231.20;1766.40;;;;;;5095245;28;20039;-81
2021/04/13 05:44:50;;;;;;;16.25;7.50;;;231.00;1817.60;;;;;;5093898;28;20025;-81
2021/04/13 05:47:17;;;;;;;15.48;7.43;;;230.70;1843.20;;;;;;5112683;28;20058;-80
2021/04/13 05:49:43;;;;;;;11.88;6.20;;;230.80;1868.80;;;;;;5092623;28;20027;-80
2021/04/13 05:52:08;;;;;;;;;;;230.80;1868.80;;;;;;5084219;28;20062;-80
2021/04/13 05:54:34;;;;;;;9.43;6.80;;;230.70;1868.80;;;;;;5089384;28;19904;-81
2021/04/13 05:57:00;;;;;;;;;;;231.00;1843.20;;;;;;5076332;28;20030;-81
2021/04/13 05:59:29;;;;;;;10.10;5.83;;;231.10;1843.20;;;;;;5070241;28;19911;-81
2021/04/13 06:01:55;;;;;;;10.90;6.47;;;231.30;1766.40;;;;;;5071638;28;20039;-81
2021/04/13 06:04:21;;;;;;;10.52;5.78;;;256.00;1740.80;;;;;;5073300;28;20035;-81
2021/04/13 06:06:47;;;;;;;9.70;6.03;;;231.00;1817.60;;;;;;5071972;28;20409;-81
2021/04/13 06:09:13;;;;;;;;;;;230.80;1843.20;;;;;;5071183;28;20502;-79
2021/04/13 06:11:38;;;;;;;10.45;6.18;;;230.90;1843.20;;;;;;5072734;28;19987;-77
2021/04/13 06:14:04;;;;;;;;;;;231.30;1817.60;;;;;;5072370;28;20024;-78
2021/04/13 06:16:40;;;;;;;11.68;5.82;;;231.30;1792.00;;;;;;5080879;28;19947;-77
2021/04/13 06:19:07;;;;;;;14.00;7.10;;;231.30;1792.00;;;;;;5072079;28;20473;-82
2021/04/13 06:21:34;;;;;;;10.05;5.93;;;256.10;1792.00;;;;;;5092283;28;20124;-80
2021/04/13 06:24:00;;;;;;;9.88;5.38;;;256.50;1766.40;;;;;;5074320;28;20038;-81
2021/04/13 06:26:26;;;;;;;10.05;5.20;;;256.50;1740.80;;;;;;5074229;28;20036;-80
2021/04/13 06:28:52;;;;;;;10.00;5.93;;;256.70;1689.60;;;;;;5074442;28;20063;-84
2021/04/13 06:31:18;;;;;;;11.15;5.60;;;256.20;1766.40;;;;;;5074504;28;20028;-81
2021/04/13 06:33:43;;;;;;;11.82;5.78;;;256.60;1715.20;;;;;;5076643;28;20036;-81
2021/04/13 06:36:11;;;;;;;;;;;256.80;1715.20;;;;;;5077566;28;20389;-80
2021/04/13 06:38:37;;;;;;;;;;;256.70;1715.20;;;;;;5078830;28;20284;-80
2021/04/13 06:41:45;;;;;;;28.98;11.38;;;256.70;1689.60;;;;;;5078342;28;19904;-80
2021/04/13 06:44:26;;;;;;;32.00;15.10;;;256.70;1740.80;;;;;;5069138;28;20494;-80
2021/04/13 06:47:23;;;;;;;22.40;11.85;;;256.40;1766.40;;;;;;5077918;28;20024;-80
2021/04/13 06:50:40;;;;;;;17.52;9.70;;;256.30;1792.00;;;;;;5066893;28;20036;-83
2021/04/13 06:53:32;;;;;;;17.77;9.68;;;256.30;1792.00;;;;;;5033683;28;20065;-79
2021/04/13 06:56:20;;;;;;;13.18;9.00;;;256.40;1766.40;;;;;;5016630;28;20033;-78
2021/04/13 06:59:01;;;;;;;11.88;7.53;;;256.60;1740.80;;;;;;5016358;28;20042;-79
2021/04/13 07:01:33;;;;;;;9.27;6.97;;;256.50;1766.40;;;;;;5026661;28;20372;-79
2021/04/13 07:04:08;;;;;;;9.52;7.15;;;256.90;1715.20;;;;;;5002607;28;20041;-76
2021/04/13 07:06:41;;;;;;;14.93;8.07;;;256.90;1715.20;;;;;;5016338;28;20032;-77
2021/04/13 07:09:25;;;;;;;11.43;7.53;;;281.80;1715.20;;;;;;5033101;28;20037;-77
2021/04/13 07:12:32;;;;;;;8.63;6.13;;;281.70;1740.80;;;;;;5033314;28;20025;-79
2021/04/13 07:15:01;;;;;;;19.58;8.95;;;281.80;1740.80;;;;;;4977518;28;20057;-79
2021/04/13 07:17:31;;;;;;;7.90;5.65;;;281.60;1766.40;;;;;;4993105;28;20050;-81
2021/04/13 07:20:03;;;;;;;10.40;6.53;;;281.60;1715.20;;;;;;4993782;28;20534;-80
2021/04/13 07:22:36;;;;;;;11.05;6.30;;;256.90;1740.80;;;;;;4993337;28;20531;-79
2021/04/13 07:25:04;;;;;;;16.08;7.40;;;281.80;1740.80;;;;;;4993359;28;20113;-78
2021/04/13 07:27:48;;;;;;;7.45;5.50;;;256.80;1740.80;;;;;;4993846;28;20542;-80
2021/04/13 07:30:24;;;;;;;10.00;5.60;;;281.80;1689.60;;;;;;5016136;28;20083;-80
2021/04/13 07:32:56;;;;;;;72.03;40.03;;;281.80;1689.60;;;;;;5032433;28;20080;-79
2021/04/13 07:35:23;;;;;;;20.90;9.90;;;282.00;1689.60;;;;;;5032868;28;20033;-80
2021/04/13 07:37:51;;;;;;;23.92;10.52;;;281.80;1715.20;;;;;;5015869;28;20029;-79
2021/04/13 07:40:31;;;;;;;11.00;7.18;;;282.00;1715.20;;;;;;5016484;28;20041;-79
2021/04/13 07:43:24;;;;;;;10.55;6.38;;;282.00;1715.20;;;;;;5031394;28;20761;-79
2021/04/13 07:46:27;;;;;;;8.15;5.82;;;282.00;1689.60;;;;;;5005754;28;20124;-80
2021/04/13 07:48:55;;;;;;;12.80;8.18;;;282.10;1664.00;;;;;;5088264;27;20039;-80
2021/04/13 07:51:36;;;;;;;13.77;8.77;;;282.10;1664.00;;;;;;5114897;28;20068;-79
2021/04/13 07:54:44;;;;;;;9.30;6.65;;;282.20;1664.00;;;;;;5084679;28;20392;-79
2021/04/13 07:57:48;;;;;;;12.48;6.93;;;282.10;1689.60;;;;;;5096224;28;20072;-78
2021/04/13 08:00:25;;;;;;;11.98;8.55;;;282.10;1715.20;;;;;;5031912;28;20105;-79
2021/04/13 08:03:25;;;;;;;15.93;10.35;;;282.00;1689.60;;;;;;5031496;28;20574;-78
2021/04/13 08:05:56;;;;;;;9.70;6.63;;;282.20;1689.60;;;;;;5031562;28;20125;-78
2021/04/13 08:08:29;;;;;;;9.30;5.63;;;282.00;1715.20;;;;;;5031782;28;20017;-78
2021/04/13 08:11:11;;;;;;;13.20;6.55;;;282.10;1689.60;;;;;;5031786;28;20033;-79
2021/04/13 08:13:39;;;;;;;14.38;8.32;;;282.10;1664.00;;;;;;5020060;28;20021;-79
2021/04/13 08:16:06;;;;;;;12.27;7.18;;;282.00;1664.00;;;;;;5019661;28;20022;-79
2021/04/13 08:18:41;;;;;;;9.73;6.65;;;281.90;1689.60;;;;;;5048259;28;20049;-79
2021/04/13 08:21:30;;;;;;;8.77;5.35;;;282.10;1664.00;;;;;;5015237;28;20026;-79
2021/04/13 08:23:56;;;;;;;9.85;6.85;;;281.90;1689.60;;;;;;5032319;28;20522;-80
2021/04/13 08:26:37;;;;;;;8.40;5.78;;;282.10;1664.00;;;;;;5027538;28;20021;-79
2021/04/13 08:29:33;;;;;;;11.10;6.40;;;282.20;1664.00;;;;;;5019791;28;20026;-79
2021/04/13 08:35:30;;;;;;;10.37;6.63;;;282.20;1664.00;;;;;;5114368;28;20035;-80
2021/04/13 08:38:04;;;;;;;13.93;7.93;;;282.10;1664.00;;;;;;5083344;28;20114;-79
2021/04/13 08:40:36;;;;;;;11.77;6.05;;;282.20;1638.40;;;;;;5096061;28;20388;-80
2021/04/13 08:43:08;;;;;;;11.27;7.25;;;282.20;1664.00;;;;;;5130072;27;20031;-80
2021/04/13 08:45:40;;;;;;;12.60;8.15;;;282.20;1638.40;;;;;;5114129;28;20073;-81
2021/04/13 08:48:24;;;;;;;12.60;8.32;;;282.20;1664.00;;;;;;5095660;28;20023;-79
2021/04/13 08:51:17;;;;;;;11.52;8.30;;;282.30;1664.00;;;;;;5126352;27;20059;-80
2021/04/13 08:54:13;;;;;;;15.18;8.75;;;282.50;1638.40;;;;;;5093421;28;20070;-80
2021/04/13 08:56:56;;;;;;;10.95;6.55;;;282.40;1638.40;;;;;;5091770;28;20016;-80
2021/04/13 08:59:37;;;;;;;14.43;8.15;;;282.40;1612.80;;;;;;5087940;28;20472;-80
2021/04/13 09:02:11;;;;;;;20.58;8.00;;;282.40;1664.00;;;;;;5088057;28;20119;-80
2021/04/13 09:04:36;;;;;;;11.32;7.20;;;282.40;1664.00;;;;;;5105668;28;20115;-80
2021/04/13 09:07:36;;;;;;;13.57;8.60;;;282.40;1638.40;;;;;;5090649;28;20054;-82
2021/04/13 09:10:27;;;;;;;10.45;7.20;;;282.40;1664.00;;;;;;5093132;28;20028;-81
2021/04/13 09:13:20;;;;;;;11.07;7.30;;;282.50;1664.00;;;;;;5080893;28;20027;-81
2021/04/13 09:16:08;;;;;;;13.38;7.75;;;282.40;1664.00;;;;;;5092154;28;20111;-81
2021/04/13 09:18:42;;;;;;;12.38;7.85;;;282.40;1664.00;;;;;;5102615;28;20048;-81
2021/04/13 09:21:34;;;;;;;16.23;8.13;;;282.40;1638.40;;;;;;5078586;28;20024;-81
2021/04/13 09:24:19;;;;;;;12.07;8.80;;;282.50;1689.60;;;;;;5080644;28;20040;-79
2021/04/13 09:26:56;;;;;;;14.77;8.90;;;282.50;1638.40;;;;;;5091391;28;20028;-78
2021/04/13 09:29:30;;;;;;;10.25;7.53;;;307.20;1664.00;;;;;;5090934;28;20020;-79
2021/04/13 09:31:57;;;;;;;22.45;10.48;;;307.30;1664.00;;;;;;5093047;28;20103;-78
2021/04/13 09:34:35;;;;;;;10.85;7.22;;;307.40;1638.40;;;;;;5088831;28;20044;-78
2021/04/13 09:37:24;;;;;;;10.40;6.15;;;307.40;1612.80;;;;;;5090420;28;20103;-78
2021/04/13 09:39:59;;;;;;;10.32;6.10;;;307.30;1612.80;;;;;;5077602;28;20425;-80
2021/04/13 09:42:43;;;;;;;12.68;6.60;;;307.30;1638.40;;;;;;5091353;28;20020;-83
2021/04/13 09:45:43;;;;;;;9.30;6.47;;;307.20;1638.40;;;;;;5090707;28;20386;-80
2021/04/13 09:48:14;;;;;;;9.57;6.07;;;307.30;1638.40;;;;;;5089431;28;20108;-80
2021/04/13 09:51:13;;;;;;;10.15;7.60;;;282.50;1587.20;;;;;;5089414;28;20143;-80
2021/04/13 09:54:26;;;;;;;14.50;7.10;;;307.20;1638.40;;;;;;5090281;28;20157;-80
2021/04/13 09:57:16;;;;;;;13.48;7.43;;;307.20;1664.00;;;;;;5068843;28;20048;-79
2021/04/13 09:59:42;;;;;;;17.15;9.88;;;307.20;1638.40;;;;;;5068628;28;20024;-80
2021/04/13 10:02:28;;;;;;;20.85;12.43;;;307.30;1638.40;;;;;;5068875;28;20032;-80
2021/04/13 10:05:00;;;;;;;13.82;7.72;;;282.50;1638.40;;;;;;5068571;28;20032;-80
2021/04/13 10:07:29;;;;;;;20.15;9.13;;;282.50;1664.00;;;;;;5067428;28;20028;-80
2021/04/13 10:09:58;;;;;;;23.13;11.82;;;282.40;1664.00;;;;;;5069288;28;20043;-79
2021/04/13 10:12:50;;;;;;;17.92;9.43;;;282.40;1638.40;;;;;;5068359;28;20098;-78
2021/04/13 10:15:24;;;;;;;15.07;8.90;;;282.40;1638.40;;;;;;5067318;28;20403;-79
2021/04/13 10:18:09;;;;;;;16.83;9.38;;;282.30;1664.00;;;;;;5068816;28;20123;-78
2021/04/13 10:20:53;;;;;;;14.50;9.02;;;282.50;1638.40;;;;;;5066837;28;20142;-78
2021/04/13 10:23:50;;;;;;;13.85;6.95;;;282.50;1638.40;;;;;;5068226;28;20044;-78
2021/04/13 10:26:30;;;;;;;17.20;9.50;;;282.50;1612.80;;;;;;5067423;28;20025;-79
2021/04/13 10:29:33;;;;;;;17.88;12.05;;;281.90;1715.20;;;;;;5068429;28;20020;-78
2021/04/13 10:32:28;;;;;;;16.23;9.45;;;282.20;1664.00;;;;;;5068661;28;20457;-77
2021/04/13 10:35:12;;;;;;;14.43;8.45;;;282.20;1664.00;;;;;;5089604;28;20702;-78
2021/04/13 10:37:47;;;;;;;12.20;6.65;;;282.20;1664.00;;;;;;5089437;28;20059;-77
2021/04/13 10:40:24;;;;;;;13.68;7.85;;;282.20;1664.00;;;;;;5090407;28;20016;-78
2021/04/13 10:43:12;;;;;;;17.13;8.52;;;282.20;1664.00;;;;;;5090596;28;20042;-78
2021/04/13 10:45:41;;;;;;;21.30;9.73;;;282.10;1766.40;;;;;;5088427;28;20102;-78
2021/04/13 10:48:48;;;;;;;9.95;6.15;;;282.20;1766.40;;;;;;5088914;28;20056;-78
2021/04/13 10:51:41;;;;;;;13.40;7.68;;;282.10;1766.40;;;;;;5081585;28;20054;-78
2021/04/13 10:54:13;;;;;;;12.55;6.78;;;282.00;1792.00;;;;;;5089579;28;20024;-78
2021/04/13 10:56:48;;;;;;;12.93;7.85;;;281.90;1766.40;;;;;;5070244;28;20024;-79
2021/04/13 10:59:36;;;;;;;10.40;6.03;;;281.90;1817.60;;;;;;5090974;28;20032;-79
2021/04/13 11:02:12;;;;;;;11.20;6.68;;;282.00;1817.60;;;;;;5088934;28;20395;-78
2021/04/13 11:04:58;;;;;;;;;;;281.90;1792.00;;;;;;5073069;28;20019;-79
2021/04/13 11:07:50;;;;;;;13.15;7.72;;;282.00;1766.40;;;;;;5070909;28;19904;-79
2021/04/13 11:10:40;;;;;;;11.70;6.75;;;281.90;1792.00;;;;;;5087905;28;20032;-79
2021/04/13 11:13:21;;;;;;;15.95;7.53;;;281.70;1843.20;;;;;;5072692;28;20492;-76
2021/04/13 11:16:03;;;;;;;12.05;6.60;;;281.90;1868.80;;;;;;5089708;28;20023;-80
2021/04/13 11:18:38;;;;;;;12.35;6.88;;;281.90;1868.80;;;;;;5091048;28;20031;-80
2021/04/13 11:21:36;;;;;;;9.88;6.90;;;281.90;1894.40;;;;;;5099584;28;20071;-80
2021/04/13 11:24:39;;;;;;;15.93;7.65;;;281.90;1920.00;;;;;;5092981;28;20127;-80
2021/04/13 11:27:23;;;;;;;14.18;7.72;;;281.90;1920.00;;;;;;5095432;28;20028;-80
2021/04/13 11:30:08;;;;;;;12.70;6.88;;;281.80;1945.60;;;;;;5076141;28;20047;-79
2021/04/13 11:32:53;;;;;;;12.73;7.72;;;281.60;1971.20;;;;;;5075889;28;20031;-80
2021/04/13 11:35:35;;;;;;;10.80;7.25;;;281.70;1996.80;;;;;;5094076;28;20507;-79
2021/04/13 11:38:28;;;;;;;11.93;7.18;;;281.70;1971.20;;;;;;5096558;28;20047;-80
2021/04/13 11:41:16;;;;;;;11.07;6.85;;;256.80;1971.20;;;;;;5102097;28;20450;-79
2021/04/13 11:43:50;;;;;;;11.20;8.25;;;256.80;1971.20;;;;;;5074423;28;20035;-79
2021/04/13 11:46:23;;;;;;;12.85;9.60;;;256.50;2048.00;;;;;;5099373;28;20012;-79
2021/04/13 11:49:09;;;;;;;13.48;9.10;;;256.50;2073.60;;;;;;5076416;28;20047;-80
2021/04/13 11:51:55;;;;;;;15.80;8.02;;;256.70;2073.60;;;;;;5087857;28;20119;-79
2021/04/13 11:54:43;;;;;;;17.67;12.20;;;256.90;2048.00;;;;;;5093624;28;20043;-82
2021/04/13 11:57:18;;;;;;;12.68;8.70;;;256.90;2099.20;;;;;;5094230;28;20135;-82
2021/04/13 12:00:10;;;;;;;10.88;8.07;;;256.90;2073.60;;;;;;5094246;28;20031;-83
2021/04/13 12:02:43;;;;;;;9.93;6.65;;;256.90;1996.80;;;;;;5094544;28;20069;-82
2021/04/13 12:05:28;;;;;;;12.15;7.32;;;256.90;1996.80;;;;;;5091363;28;20021;-81
2021/04/13 12:07:54;;;;;;;12.32;7.25;;;256.70;2022.40;;;;;;5089664;28;20032;-83
2021/04/13 12:10:35;;;;;;;15.48;8.95;;;256.40;2124.80;;;;;;5094533;28;20024;-83
2021/04/13 12:13:09;;;;;;;13.10;8.43;;;256.40;2124.80;;;;;;5093801;28;20028;-83
2021/04/13 12:15:48;;;;;;;14.07;7.47;;;256.30;2124.80;;;;;;5093930;28;20092;-83
2021/04/13 12:18:36;;;;;;;18.15;12.10;;;256.20;2099.20;;;;;;5093245;28;20028;-83
2021/04/13 12:21:24;;;;;;;16.13;8.88;;;256.70;2099.20;;;;;;5093232;28;20020;-82
2021/04/13 12:23:53;;;;;;;14.98;8.80;;;256.60;1996.80;;;;;;5091588;28;20036;-81
2021/04/13 12:26:39;;;;;;;15.95;9.52;;;256.50;2073.60;;;;;;5092819;28;20063;-81
2021/04/13 12:29:27;;;;;;;11.45;7.88;;;256.50;2048.00;;;;;;5090385;28;20032;-81
2021/04/13 12:32:11;;;;;;;11.48;7.75;;;256.40;2048.00;;;;;;5092480;28;20114;-79
2021/04/13 12:34:58;;;;;;;14.80;9.07;;;256.40;2022.40;;;;;;5091782;28;20032;-79
2021/04/13 12:37:59;;;;;;;15.98;10.68;;;256.30;2048.00;;;;;;5089935;28;20024;-79
2021/04/13 12:40:29;;;;;;;10.65;7.60;;;256.40;2048.00;;;;;;5091201;28;20028;-80
2021/04/13 12:43:03;;;;;;;14.43;9.52;;;256.40;2073.60;;;;;;5091271;28;20126;-79
2021/04/13 12:45:40;;;;;;;16.70;8.77;;;256.30;2073.60;;;;;;5098704;28;20026;-82
2021/04/13 12:48:22;;;;;;;13.93;8.70;;;256.40;2022.40;;;;;;5074100;28;20036;-82
2021/04/13 12:51:09;;;;;;;13.18;8.45;;;256.30;2048.00;;;;;;5091001;28;20036;-80
2021/04/13 12:53:35;;;;;;;11.40;7.82;;;256.30;2073.60;;;;;;5090278;28;20115;-81
2021/04/13 12:56:05;;;;;;;12.25;7.93;;;256.30;2073.60;;;;;;5088238;28;20035;-79
2021/04/13 12:58:39;;;;;;;11.68;8.15;;;256.30;2073.60;;;;;;5091238;28;20028;-82
2021/04/13 13:01:07;;;;;;;12.75;8.18;;;256.40;2048.00;;;;;;5073969;28;20032;-81
2021/04/13 13:03:38;;;;;;;16.00;8.35;;;256.30;2073.60;;;;;;5074139;28;20120;-82
2021/04/13 13:06:36;;;;;;;13.50;9.48;;;256.30;2073.60;;;;;;5070977;28;20028;-82
2021/04/13 13:09:36;;;;;;;21.90;16.42;;;256.30;2048.00;;;;;;5011296;28;20121;-81